Time;durP1;ratioP1;P1;durP2;ratioP2;P2;SDS_P1;SDS_P2;PMS_P1;PMS_P2;Temp;Humidity;BMP_temperature;BMP_pressure;BME280_temperature;BME280_humidity;BME280_pressure;Samples;Min_cycle;Max_cycle;Signal;HPM_P1;HPM_P2
2022/01/17 00:01:52;;;;;;;34.73;24.73;;;1.20;99.90;;;;;;5057904;28;20359;-85
2022/01/17 00:04:18;;;;;;;33.97;25.73;;;1.10;99.90;;;;;;5057560;28;20221;-85
2022/01/17 00:06:44;;;;;;;34.80;24.93;;;1.10;99.90;;;;;;5075476;28;20170;-82
2022/01/17 00:09:12;;;;;;;37.07;25.90;;;1.00;99.90;;;;;;5057746;28;20187;-83
2022/01/17 00:11:42;;;;;;;36.00;26.10;;;1.00;99.90;;;;;;5075423;28;20257;-82
2022/01/17 00:14:12;;;;;;;36.50;26.27;;;1.00;99.90;;;;;;5075491;28;20166;-84
2022/01/17 00:16:43;;;;;;;38.53;26.23;;;1.00;99.90;;;;;;5075248;28;20625;-84
2022/01/17 00:21:51;;;;;;;39.73;28.23;;;0.90;99.90;;;;;;5075502;28;20217;-82
2022/01/17 00:24:18;;;;;;;37.37;27.37;;;0.80;99.90;;;;;;5075135;28;20325;-83
2022/01/17 00:26:47;;;;;;;44.23;29.30;;;0.80;99.90;;;;;;5075378;28;20174;-83
2022/01/17 00:29:13;;;;;;;39.97;28.50;;;0.70;99.90;;;;;;5057111;28;20209;-83
2022/01/17 00:31:39;;;;;;;38.80;27.80;;;0.70;99.90;;;;;;5075750;28;20171;-83
2022/01/17 00:34:05;;;;;;;45.47;30.00;;;0.60;99.90;;;;;;5075023;28;20185;-83
2022/01/17 00:36:30;;;;;;;43.70;28.43;;;0.60;99.90;;;;;;5076268;28;20531;-84
2022/01/17 00:38:56;;;;;;;42.77;28.37;;;0.50;99.90;;;;;;5058004;28;20181;-83
2022/01/17 00:41:22;;;;;;;39.30;27.40;;;0.50;99.90;;;;;;5076149;28;20183;-84
2022/01/17 00:43:48;;;;;;;41.13;28.17;;;0.50;99.90;;;;;;5074491;28;20227;-82
2022/01/17 00:46:14;;;;;;;39.30;27.50;;;0.60;99.90;;;;;;5074968;28;20180;-84
2022/01/17 00:48:40;;;;;;;36.50;26.90;;;0.50;99.90;;;;;;5075367;28;20556;-84
2022/01/17 00:51:05;;;;;;;37.20;27.90;;;0.40;99.90;;;;;;5075664;28;20179;-85
2022/01/17 00:53:31;;;;;;;39.00;28.60;;;0.50;99.90;;;;;;5080700;28;20177;-84
2022/01/17 00:55:57;;;;;;;40.23;27.33;;;0.50;99.90;;;;;;5089279;28;20240;-82
2022/01/17 00:58:23;;;;;;;37.87;28.10;;;0.60;99.90;;;;;;5088571;28;20205;-84
2022/01/17 01:00:49;;;;;;;37.30;26.90;;;0.60;99.90;;;;;;5078136;28;20326;-84
2022/01/17 01:03:14;;;;;;;40.63;28.50;;;0.50;99.90;;;;;;5076465;28;20174;-83
2022/01/17 01:05:40;;;;;;;40.03;26.50;;;0.50;99.90;;;;;;5074661;28;20227;-83
2022/01/17 01:08:06;;;;;;;35.43;26.40;;;0.60;99.90;;;;;;5074570;28;20170;-83
2022/01/17 01:10:32;;;;;;;39.07;27.60;;;0.50;99.90;;;;;;5074358;28;20705;-82
2022/01/17 01:12:58;;;;;;;41.73;27.10;;;0.50;99.90;;;;;;5074359;28;20632;-82
2022/01/17 01:28:54;;;;;;;39.47;26.80;;;0.70;99.90;;;;;;5074359;28;20163;-82
2022/01/17 01:31:29;;;;;;;39.17;26.47;;;0.70;99.90;;;;;;5074173;28;20168;-81
2022/01/17 01:34:02;;;;;;;39.63;27.17;;;0.70;99.90;;;;;;5073681;28;20161;-83
2022/01/17 01:36:29;;;;;;;36.00;25.30;;;0.70;99.90;;;;;;5073677;28;20257;-81
2022/01/17 01:38:55;;;;;;;39.63;26.67;;;0.70;99.90;;;;;;5074124;28;20260;-81
2022/01/17 01:41:21;;;;;;;34.17;24.80;;;0.70;99.90;;;;;;5073999;28;20188;-82
2022/01/17 01:43:47;;;;;;;35.83;25.53;;;0.70;99.90;;;;;;5073559;28;20192;-81
2022/01/17 01:46:17;;;;;;;36.43;24.80;;;0.70;99.90;;;;;;5073414;28;20185;-81
2022/01/17 01:48:43;;;;;;;37.47;26.73;;;0.80;99.90;;;;;;5073755;28;20170;-83
2022/01/17 01:51:09;;;;;;;35.13;24.90;;;0.80;99.90;;;;;;5073565;28;20255;-83
2022/01/17 01:53:36;;;;;;;34.43;26.03;;;0.80;99.90;;;;;;5073711;28;20187;-82
2022/01/17 01:56:03;;;;;;;34.30;24.73;;;0.70;99.90;;;;;;5055154;28;20217;-83
2022/01/17 01:58:28;;;;;;;32.47;24.40;;;0.60;99.90;;;;;;5055795;28;20242;-83
2022/01/17 02:00:55;;;;;;;34.57;24.27;;;0.70;99.90;;;;;;5073428;28;20179;-82
2022/01/17 02:03:22;;;;;;;35.40;26.00;;;0.70;99.90;;;;;;5073348;28;20169;-82
2022/01/17 02:05:48;;;;;;;36.17;24.67;;;0.70;99.90;;;;;;5073379;28;20203;-85
2022/01/17 02:08:15;;;;;;;33.17;24.53;;;0.70;99.90;;;;;;5055365;28;20196;-83
2022/01/17 02:10:41;;;;;;;35.17;25.50;;;0.80;99.90;;;;;;5073225;28;20184;-81
2022/01/17 02:13:07;;;;;;;38.07;25.47;;;0.70;99.90;;;;;;5073332;28;20172;-81
2022/01/17 02:15:36;;;;;;;33.77;24.47;;;0.70;99.90;;;;;;5073200;28;20177;-84
2022/01/17 02:18:02;;;;;;;33.20;24.40;;;0.70;99.90;;;;;;5055458;28;20191;-84
2022/01/17 02:20:42;;;;;;;33.80;24.13;;;0.70;99.90;;;;;;5074350;28;20251;-83
2022/01/17 02:23:09;;;;;;;32.47;23.40;;;0.80;99.90;;;;;;5074445;28;20164;-83
2022/01/17 02:25:35;;;;;;;33.80;24.13;;;0.80;99.90;;;;;;5073969;28;20672;-84
2022/01/17 02:28:01;;;;;;;34.40;24.03;;;0.80;99.90;;;;;;5073228;28;20176;-84
2022/01/17 02:30:31;;;;;;;35.73;24.97;;;0.70;99.90;;;;;;5073062;28;20234;-83
2022/01/17 02:32:58;;;;;;;32.30;24.33;;;0.70;99.90;;;;;;5072893;28;20157;-81
2022/01/17 02:35:25;;;;;;;31.27;24.43;;;0.70;99.90;;;;;;5073257;28;20169;-82
2022/01/17 02:37:52;;;;;;;34.10;23.57;;;0.60;99.90;;;;;;5073185;28;20176;-84
2022/01/17 02:40:18;;;;;;;34.40;24.43;;;0.60;99.90;;;;;;5055341;28;20227;-82
2022/01/17 02:42:49;;;;;;;33.27;24.53;;;0.60;99.90;;;;;;5073956;28;20184;-84
2022/01/17 02:45:33;;;;;;;35.70;24.63;;;0.70;99.90;;;;;;5081249;28;20204;-83
2022/01/17 02:48:00;;;;;;;37.30;24.57;;;0.70;99.90;;;;;;5090971;28;20156;-82
2022/01/17 02:50:26;;;;;;;32.90;24.63;;;0.60;99.90;;;;;;5074918;28;20175;-82
2022/01/17 02:53:00;;;;;;;34.43;23.67;;;0.60;99.90;;;;;;5073045;28;20991;-83
2022/01/17 02:55:27;;;;;;;33.27;24.70;;;0.60;99.90;;;;;;5073121;28;20214;-82
2022/01/17 02:57:53;;;;;;;35.80;24.50;;;0.60;99.90;;;;;;5072617;28;20753;-82
2022/01/17 03:00:19;;;;;;;33.97;24.83;;;0.60;99.90;;;;;;5054913;28;20275;-81
2022/01/17 03:02:48;;;;;;;32.30;24.67;;;0.70;99.90;;;;;;5072971;28;20168;-84
2022/01/17 03:05:15;;;;;;;33.70;23.93;;;0.60;99.90;;;;;;5072956;28;20291;-82
2022/01/17 03:07:41;;;;;;;37.23;25.40;;;0.60;99.90;;;;;;5056474;28;20173;-81
2022/01/17 03:10:15;;;;;;;32.83;23.70;;;0.60;99.90;;;;;;5076665;28;20172;-82
2022/01/17 03:12:40;;;;;;;31.47;23.37;;;0.70;99.90;;;;;;5076761;28;20157;-81
2022/01/17 03:15:08;;;;;;;34.03;23.80;;;0.80;99.90;;;;;;5076485;28;20179;-82
2022/01/17 03:17:34;;;;;;;36.83;26.17;;;0.80;99.90;;;;;;5076549;28;20251;-82
2022/01/17 03:19:59;;;;;;;31.97;23.97;;;0.80;99.90;;;;;;5076510;28;20208;-82
2022/01/17 03:22:25;;;;;;;35.27;23.77;;;0.70;99.90;;;;;;5076766;28;20250;-83
2022/01/17 03:24:51;;;;;;;37.03;23.83;;;0.70;99.90;;;;;;5076208;28;20605;-82
2022/01/17 03:27:18;;;;;;;36.77;24.20;;;0.70;99.90;;;;;;5076090;28;20175;-82
2022/01/17 03:29:44;;;;;;;34.47;23.50;;;0.70;99.90;;;;;;5058144;28;20621;-82
2022/01/17 03:32:10;;;;;;;34.17;23.97;;;0.70;99.90;;;;;;5076526;28;20170;-85
2022/01/17 03:34:38;;;;;;;33.97;23.13;;;0.70;99.90;;;;;;5076044;28;20177;-83
2022/01/17 03:37:03;;;;;;;33.23;23.47;;;0.70;99.90;;;;;;5097666;28;20156;-83
2022/01/17 03:39:29;;;;;;;30.07;23.03;;;0.70;99.90;;;;;;5097732;28;20155;-80
2022/01/17 03:41:55;;;;;;;29.17;22.13;;;0.70;99.90;;;;;;5085749;28;20169;-82
2022/01/17 03:44:20;;;;;;;32.60;23.07;;;0.80;99.90;;;;;;5077583;28;20247;-81
2022/01/17 03:46:46;;;;;;;33.73;24.10;;;0.80;99.90;;;;;;5076740;28;20183;-81
2022/01/17 03:49:12;;;;;;;31.60;22.20;;;0.70;99.90;;;;;;5058075;28;20191;-82
2022/01/17 03:51:38;;;;;;;31.87;22.63;;;0.70;99.90;;;;;;5057990;28;20650;-81
2022/01/17 03:54:05;;;;;;;31.13;24.67;;;0.60;99.90;;;;;;5076067;28;20577;-81
2022/01/17 03:56:30;;;;;;;31.77;22.70;;;0.70;99.90;;;;;;5075736;28;20578;-82
2022/01/17 03:58:56;;;;;;;32.87;22.27;;;0.70;99.90;;;;;;5057916;28;20185;-82
2022/01/17 04:01:22;;;;;;;31.83;22.93;;;0.60;99.90;;;;;;5075842;28;20183;-83
2022/01/17 04:03:47;;;;;;;31.87;23.57;;;0.60;99.90;;;;;;5057588;28;20239;-82
2022/01/17 04:06:16;;;;;;;27.90;21.90;;;0.60;99.90;;;;;;5076180;28;20211;-83
2022/01/17 04:08:42;;;;;;;29.87;22.43;;;0.60;99.90;;;;;;5076539;28;20636;-83
2022/01/17 04:11:08;;;;;;;31.80;22.03;;;0.60;99.90;;;;;;5076280;28;20188;-83
2022/01/17 04:13:35;;;;;;;62.93;39.33;;;0.60;99.90;;;;;;5057591;28;20182;-83
2022/01/17 04:16:01;;;;;;;39.83;27.27;;;0.50;99.90;;;;;;5075763;28;20172;-83
2022/01/17 04:18:27;;;;;;;45.30;28.87;;;0.50;99.90;;;;;;5075454;28;20242;-83
2022/01/17 04:20:53;;;;;;;35.67;25.77;;;0.50;99.90;;;;;;5075331;28;20223;-83
2022/01/17 04:23:19;;;;;;;35.57;24.10;;;0.50;99.90;;;;;;5075370;28;20166;-83
2022/01/17 04:25:45;;;;;;;36.83;24.37;;;0.50;99.90;;;;;;5075177;28;20690;-83
2022/01/17 04:28:13;;;;;;;31.00;23.73;;;0.50;99.90;;;;;;5075439;28;20256;-83
2022/01/17 04:30:40;;;;;;;30.60;23.87;;;0.50;99.90;;;;;;5078020;28;20315;-83
2022/01/17 04:33:07;;;;;;;33.87;23.67;;;0.50;99.90;;;;;;5078177;28;20168;-83
2022/01/17 04:35:33;;;;;;;33.43;22.93;;;0.60;99.90;;;;;;5087648;28;20172;-83
2022/01/17 04:38:07;;;;;;;29.93;21.73;;;0.50;99.90;;;;;;5092573;28;20184;-82
2022/01/17 04:40:35;;;;;;;29.00;21.73;;;0.50;99.90;;;;;;5078200;28;20164;-83
2022/01/17 04:43:18;;;;;;;30.23;22.23;;;0.50;99.90;;;;;;5075891;28;20177;-83
2022/01/17 04:45:45;;;;;;;34.60;22.73;;;0.50;99.90;;;;;;5075711;28;20200;-83
2022/01/17 04:48:11;;;;;;;30.57;22.77;;;0.50;99.90;;;;;;5080140;28;20241;-82
2022/01/17 04:50:37;;;;;;;31.07;22.13;;;0.40;99.90;;;;;;5086106;28;20204;-82
2022/01/17 04:53:03;;;;;;;31.23;22.97;;;0.40;99.90;;;;;;5083499;28;20636;-84
2022/01/17 04:55:29;;;;;;;32.40;23.83;;;0.40;99.90;;;;;;5074627;28;20172;-83
2022/01/17 04:57:56;;;;;;;31.83;21.97;;;0.40;99.90;;;;;;5074301;28;20224;-83
2022/01/17 05:00:23;;;;;;;31.47;23.23;;;0.40;99.90;;;;;;5074591;28;20204;-83
2022/01/17 05:02:49;;;;;;;31.47;22.83;;;0.40;99.90;;;;;;5074564;28;20174;-82
2022/01/17 05:05:16;;;;;;;32.03;23.60;;;0.40;99.90;;;;;;5074226;28;20546;-83
2022/01/17 05:07:42;;;;;;;31.30;22.87;;;0.40;99.90;;;;;;5074617;28;20203;-83
2022/01/17 05:10:11;;;;;;;31.23;22.43;;;0.40;99.90;;;;;;5074404;28;20173;-84
2022/01/17 05:12:37;;;;;;;32.77;23.80;;;0.30;99.90;;;;;;5074389;28;20264;-83
2022/01/17 05:15:10;;;;;;;33.63;23.27;;;0.30;99.90;;;;;;5074131;28;20177;-84
2022/01/17 05:17:43;;;;;;;28.57;22.60;;;0.30;99.90;;;;;;5074205;28;20215;-84
2022/01/17 05:20:09;;;;;;;33.57;23.73;;;0.20;99.90;;;;;;5074157;28;20161;-83
2022/01/17 05:22:36;;;;;;;28.80;22.30;;;0.20;99.90;;;;;;5074103;28;20172;-83
2022/01/17 05:25:08;;;;;;;30.33;23.27;;;0.30;99.90;;;;;;5075330;28;20224;-83
2022/01/17 05:27:35;;;;;;;33.53;23.23;;;0.40;99.90;;;;;;5062371;28;20174;-82
2022/01/17 05:30:04;;;;;;;30.97;22.27;;;0.30;99.90;;;;;;5087548;28;20176;-83
2022/01/17 05:32:29;;;;;;;31.30;22.93;;;0.40;99.90;;;;;;5070274;28;20186;-82
2022/01/17 05:34:55;;;;;;;31.60;23.37;;;0.40;99.90;;;;;;5085165;28;20176;-81
2022/01/17 05:37:21;;;;;;;32.70;23.37;;;0.40;99.90;;;;;;5080944;28;20169;-81
2022/01/17 05:39:47;;;;;;;30.10;22.83;;;0.40;99.90;;;;;;5073913;28;20225;-82
2022/01/17 05:42:18;;;;;;;38.27;22.50;;;0.40;99.90;;;;;;5073890;28;20175;-83
2022/01/17 05:44:47;;;;;;;33.77;21.67;;;0.40;99.90;;;;;;5073966;28;20223;-83
2022/01/17 05:47:14;;;;;;;31.30;22.50;;;0.40;99.90;;;;;;5074260;28;20173;-84
2022/01/17 05:49:41;;;;;;;30.03;22.37;;;0.50;99.90;;;;;;5074924;28;20319;-85
2022/01/17 05:52:08;;;;;;;34.93;23.00;;;0.50;99.90;;;;;;5057572;28;20181;-84
2022/01/17 05:54:34;;;;;;;31.27;21.97;;;0.50;99.90;;;;;;5057507;28;20209;-84
2022/01/17 05:57:00;;;;;;;30.10;22.17;;;0.50;99.90;;;;;;5056877;28;20279;-83
2022/01/17 05:59:26;;;;;;;30.83;22.13;;;0.40;99.90;;;;;;5055998;28;20189;-83
2022/01/17 06:01:52;;;;;;;31.73;21.70;;;0.40;99.90;;;;;;5073937;28;20177;-82
2022/01/17 06:04:19;;;;;;;28.30;22.10;;;0.50;99.90;;;;;;5055442;28;20227;-83
2022/01/17 06:06:45;;;;;;;27.77;21.00;;;0.50;99.90;;;;;;5055470;28;20184;-84
2022/01/17 06:09:10;;;;;;;31.10;21.07;;;0.50;99.90;;;;;;5073596;28;20248;-84
2022/01/17 06:11:36;;;;;;;31.73;20.57;;;0.50;99.90;;;;;;5073712;28;20185;-83
2022/01/17 06:14:03;;;;;;;28.30;20.23;;;0.50;99.90;;;;;;5055559;28;20188;-84
2022/01/17 06:16:30;;;;;;;29.73;20.47;;;0.50;99.90;;;;;;5073645;28;20177;-84
2022/01/17 06:18:56;;;;;;;25.90;19.90;;;0.60;99.90;;;;;;5055678;28;20185;-84
2022/01/17 06:21:22;;;;;;;28.30;20.67;;;0.60;99.90;;;;;;5073742;28;20211;-83
2022/01/17 06:23:48;;;;;;;25.47;20.23;;;0.60;99.90;;;;;;5074256;28;20180;-83
2022/01/17 06:26:14;;;;;;;28.27;20.37;;;0.60;99.90;;;;;;5081736;28;20188;-84
2022/01/17 06:28:40;;;;;;;26.63;20.40;;;0.70;99.90;;;;;;5088105;28;20166;-82
2022/01/17 06:31:06;;;;;;;28.60;20.57;;;0.70;99.90;;;;;;5079477;28;20627;-84
2022/01/17 06:33:31;;;;;;;27.13;20.70;;;0.70;99.90;;;;;;5075090;28;20208;-83
2022/01/17 06:35:57;;;;;;;25.47;20.07;;;0.70;99.90;;;;;;5056454;28;20180;-81
2022/01/17 06:38:23;;;;;;;29.03;21.33;;;0.70;99.90;;;;;;5057494;28;20177;-83
2022/01/17 06:40:49;;;;;;;27.03;20.53;;;0.60;99.90;;;;;;5073134;28;20624;-83
2022/01/17 06:43:14;;;;;;;24.80;20.07;;;0.70;99.90;;;;;;5058087;28;20178;-83
2022/01/17 06:45:40;;;;;;;26.83;20.47;;;0.70;99.90;;;;;;5077466;28;20565;-82
2022/01/17 06:48:06;;;;;;;27.23;20.20;;;0.70;99.90;;;;;;5076810;28;20219;-82
2022/01/17 06:50:35;;;;;;;26.67;21.10;;;0.80;99.90;;;;;;5059138;28;20276;-82
2022/01/17 06:53:10;;;;;;;27.63;20.17;;;0.90;99.90;;;;;;5080223;28;20230;-81
2022/01/17 06:55:36;;;;;;;26.00;20.03;;;0.80;99.90;;;;;;5077971;28;20172;-82
2022/01/17 06:58:02;;;;;;;27.27;21.13;;;0.90;99.90;;;;;;5078807;28;20217;-84
2022/01/17 07:00:28;;;;;;;27.47;20.53;;;0.90;99.90;;;;;;5076818;28;20639;-84
2022/01/17 07:02:54;;;;;;;27.50;21.67;;;1.00;99.90;;;;;;5076234;28;20223;-83
2022/01/17 07:05:20;;;;;;;33.93;22.83;;;1.00;99.90;;;;;;5069491;28;20286;-82
2022/01/17 07:07:46;;;;;;;30.77;23.43;;;1.00;99.90;;;;;;5064963;28;20580;-82
2022/01/17 07:10:12;;;;;;;31.53;24.37;;;1.00;99.90;;;;;;5077282;28;20173;-83
2022/01/17 07:12:38;;;;;;;32.30;24.33;;;1.10;99.90;;;;;;5080696;28;20290;-82
2022/01/17 07:15:06;;;;;;;33.17;23.20;;;1.10;99.90;;;;;;5076780;28;20663;-83
2022/01/17 07:17:31;;;;;;;33.90;24.57;;;1.10;99.90;;;;;;5077297;28;20235;-84
2022/01/17 07:19:57;;;;;;;34.23;25.10;;;1.10;99.90;;;;;;5079653;28;20175;-90
2022/01/17 07:22:23;;;;;;;34.53;24.87;;;1.10;99.90;;;;;;5069124;28;20182;-84
2022/01/17 07:24:49;;;;;;;37.67;25.57;;;1.00;99.90;;;;;;5076897;28;20202;-83
2022/01/17 07:27:15;;;;;;;38.40;25.73;;;1.00;99.90;;;;;;5076562;28;20205;-83
2022/01/17 07:29:42;;;;;;;35.30;25.13;;;1.00;99.90;;;;;;5076319;28;20529;-83
2022/01/17 07:32:09;;;;;;;39.17;25.77;;;1.00;99.90;;;;;;5076665;28;20177;-84
2022/01/17 07:34:35;;;;;;;38.27;26.07;;;1.00;99.90;;;;;;5076416;28;20174;-84
2022/01/17 07:37:01;;;;;;;38.60;25.53;;;1.00;99.90;;;;;;5078990;28;20243;-82
2022/01/17 07:39:27;;;;;;;41.33;25.53;;;1.00;99.90;;;;;;5077372;28;20264;-82
2022/01/17 07:41:53;;;;;;;36.07;25.10;;;1.00;99.90;;;;;;5079136;28;20218;-84
2022/01/17 07:44:20;;;;;;;41.40;26.30;;;1.00;99.90;;;;;;5076359;28;20200;-84
2022/01/17 07:47:00;;;;;;;38.80;25.83;;;1.00;99.90;;;;;;5058579;28;20172;-84
2022/01/17 07:49:27;;;;;;;40.13;24.53;;;1.00;99.90;;;;;;5077290;28;20165;-86
2022/01/17 07:52:04;;;;;;;41.17;25.20;;;1.00;99.90;;;;;;5076844;28;20234;-85
2022/01/17 07:54:32;;;;;;;43.57;25.63;;;1.00;99.90;;;;;;5060350;28;20268;-85
2022/01/17 07:56:59;;;;;;;38.60;26.13;;;1.00;99.90;;;;;;5076754;28;20222;-85
2022/01/17 07:59:26;;;;;;;33.00;25.17;;;1.00;99.90;;;;;;5057980;28;20189;-85
2022/01/17 08:01:52;;;;;;;36.43;25.30;;;1.00;99.90;;;;;;5075760;28;20620;-85
2022/01/17 08:04:17;;;;;;;34.90;24.37;;;1.00;99.90;;;;;;5076094;28;20200;-86
2022/01/17 08:06:46;;;;;;;37.73;26.23;;;1.10;99.90;;;;;;5076046;28;20234;-85
2022/01/17 08:09:29;;;;;;;39.30;27.20;;;1.20;99.90;;;;;;5076477;28;20165;-88
2022/01/17 08:11:56;;;;;;;39.00;26.77;;;1.20;99.90;;;;;;5057898;28;20260;-84
2022/01/17 08:14:23;;;;;;;41.27;26.33;;;1.20;99.90;;;;;;5077353;28;20173;-84
2022/01/17 08:16:49;;;;;;;34.90;25.60;;;1.20;99.90;;;;;;5078087;28;20247;-86
2022/01/17 08:19:15;;;;;;;39.50;26.10;;;1.20;99.90;;;;;;5082754;28;20193;-84
2022/01/17 08:21:41;;;;;;;36.03;25.73;;;1.20;99.90;;;;;;5068409;28;20172;-85
2022/01/17 08:24:07;;;;;;;34.40;25.63;;;1.20;99.90;;;;;;5061688;28;20668;-86
2022/01/17 08:26:33;;;;;;;39.80;26.50;;;1.20;99.90;;;;;;5075534;28;20620;-86
2022/01/17 08:28:59;;;;;;;38.63;25.63;;;1.30;99.90;;;;;;5058322;28;20215;-86
2022/01/17 08:31:25;;;;;;;37.80;26.40;;;1.30;99.90;;;;;;5058334;28;20186;-86
2022/01/17 08:33:53;;;;;;;37.80;25.67;;;1.30;99.90;;;;;;5083519;28;20199;-86
2022/01/17 08:36:20;;;;;;;35.13;25.30;;;1.30;99.90;;;;;;5090190;28;20178;-85
2022/01/17 08:38:49;;;;;;;39.00;26.83;;;1.20;99.90;;;;;;5089476;28;20177;-85
2022/01/17 08:41:18;;;;;;;37.80;26.07;;;1.20;99.90;;;;;;5081992;28;20184;-86
2022/01/17 08:43:43;;;;;;;40.97;29.83;;;1.20;99.90;;;;;;5084673;28;20197;-85
2022/01/17 08:46:09;;;;;;;37.83;26.90;;;1.30;99.90;;;;;;5080994;28;20649;-86
2022/01/17 08:48:35;;;;;;;41.97;27.30;;;1.20;99.90;;;;;;5076335;28;20628;-85
2022/01/17 08:51:01;;;;;;;37.83;26.77;;;1.30;99.90;;;;;;5077914;28;20179;-86
2022/01/17 08:53:29;;;;;;;37.03;25.07;;;1.30;99.90;;;;;;5076693;28;20169;-85
2022/01/17 08:55:55;;;;;;;39.00;26.87;;;1.30;99.90;;;;;;5076163;28;20175;-86
2022/01/17 08:58:21;;;;;;;38.40;26.23;;;1.30;99.90;;;;;;5058000;28;20272;-86
2022/01/17 09:00:47;;;;;;;41.80;27.23;;;1.40;99.90;;;;;;5076965;28;20164;-85
2022/01/17 09:03:13;;;;;;;33.13;25.67;;;1.40;99.90;;;;;;5078324;28;20188;-86
2022/01/17 09:05:39;;;;;;;37.60;27.60;;;1.40;99.90;;;;;;5074400;28;20200;-85
2022/01/17 09:08:05;;;;;;;42.00;27.33;;;1.40;99.90;;;;;;5075563;28;20176;-85
2022/01/17 09:10:31;;;;;;;39.40;26.10;;;1.40;99.90;;;;;;5076017;28;20237;-86
2022/01/17 09:12:57;;;;;;;34.30;25.30;;;1.50;99.90;;;;;;5074987;28;20178;-85
2022/01/17 09:15:24;;;;;;;33.63;24.57;;;1.50;99.90;;;;;;5074963;28;20299;-86
2022/01/17 09:17:50;;;;;;;35.37;25.00;;;1.50;99.90;;;;;;5075287;28;20297;-85
2022/01/17 09:20:16;;;;;;;33.40;24.30;;;1.50;99.90;;;;;;5075791;28;20199;-85
2022/01/17 09:22:42;;;;;;;35.70;25.13;;;1.60;99.90;;;;;;5081693;28;20170;-85
2022/01/17 09:25:08;;;;;;;36.03;25.03;;;1.60;99.90;;;;;;5079928;28;20668;-84
2022/01/17 09:27:35;;;;;;;33.03;25.07;;;1.70;99.90;;;;;;5082692;28;20170;-86
2022/01/17 09:30:05;;;;;;;36.47;25.90;;;1.80;99.90;;;;;;5075475;28;20594;-85
2022/01/17 09:32:31;;;;;;;38.37;25.63;;;1.90;99.90;;;;;;5076409;28;20198;-87
2022/01/17 09:34:56;;;;;;;39.60;27.33;;;2.00;99.90;;;;;;5074555;28;20178;-86
2022/01/17 09:37:22;;;;;;;40.23;24.90;;;2.00;99.90;;;;;;5074357;28;20177;-86
2022/01/17 09:39:48;;;;;;;34.07;26.07;;;2.10;99.90;;;;;;5056105;28;20178;-87
2022/01/17 09:42:15;;;;;;;39.97;26.70;;;2.20;99.90;;;;;;5074313;28;20180;-86
2022/01/17 09:44:41;;;;;;;38.87;26.37;;;2.20;99.90;;;;;;5056007;28;20574;-85
2022/01/17 09:47:08;;;;;;;34.73;26.40;;;2.20;99.90;;;;;;5075126;28;20165;-86
2022/01/17 09:49:41;;;;;;;40.47;27.27;;;2.30;99.90;;;;;;5074259;28;20186;-87
2022/01/17 09:54:53;;;;;;;39.13;27.83;;;2.60;99.90;;;;;;5074341;28;20172;-86
2022/01/17 09:57:20;;;;;;;39.33;27.90;;;2.40;99.90;;;;;;5074101;28;20227;-85
2022/01/17 09:59:46;;;;;;;38.03;26.90;;;2.30;99.90;;;;;;5057422;28;20558;-86
2022/01/17 10:02:13;;;;;;;37.97;28.63;;;2.10;99.90;;;;;;5073924;28;20246;-85
2022/01/17 10:04:39;;;;;;;46.17;30.27;;;2.00;99.90;;;;;;5074185;28;20573;-85
2022/01/17 10:07:06;;;;;;;41.07;29.47;;;2.00;99.90;;;;;;5086396;28;20545;-86
2022/01/17 10:09:34;;;;;;;38.53;27.47;;;2.00;99.90;;;;;;5087021;28;20176;-85
2022/01/17 10:12:08;;;;;;;44.90;28.60;;;2.00;99.90;;;;;;5078068;28;20164;-85
2022/01/17 10:14:43;;;;;;;40.00;27.93;;;1.90;99.90;;;;;;5056365;28;20175;-84
2022/01/17 10:17:15;;;;;;;39.60;27.67;;;1.90;99.90;;;;;;5075453;28;20168;-85
2022/01/17 10:19:42;;;;;;;38.30;27.13;;;1.80;99.90;;;;;;5074114;28;20649;-85
2022/01/17 10:22:18;;;;;;;36.57;26.07;;;1.90;99.90;;;;;;5073859;28;20314;-85
2022/01/17 10:24:58;;;;;;;38.10;28.47;;;1.80;99.90;;;;;;5073838;28;20534;-86
2022/01/17 10:30:29;;;;;;;40.63;28.17;;;2.00;99.90;;;;;;5074486;28;20230;-86
2022/01/17 10:35:51;;;;;;;41.50;27.97;;;1.90;99.90;;;;;;5074135;28;20211;-87
2022/01/17 10:38:22;;;;;;;42.33;29.20;;;2.00;99.90;;;;;;5075060;28;20186;-87
2022/01/17 10:40:56;;;;;;;38.73;27.93;;;2.00;99.90;;;;;;5075091;28;20174;-86
2022/01/17 10:43:34;;;;;;;38.23;27.67;;;2.00;99.90;;;;;;5058081;28;20184;-84
2022/01/17 10:46:03;;;;;;;43.97;30.83;;;1.90;99.90;;;;;;5073752;28;20205;-85
2022/01/17 10:48:31;;;;;;;39.50;29.17;;;1.90;99.90;;;;;;5073246;28;20318;-85
2022/01/17 10:50:58;;;;;;;37.23;27.37;;;1.90;99.90;;;;;;5074260;28;20251;-85
2022/01/17 10:53:24;;;;;;;36.27;26.20;;;1.90;99.90;;;;;;5073777;28;20169;-87
2022/01/17 10:55:55;;;;;;;30.00;25.00;;;2.10;99.90;;;;;;5073677;28;20186;-86
2022/01/17 10:58:32;;;;;;;33.03;25.33;;;2.00;99.90;;;;;;5073668;28;20660;-85
2022/01/17 11:01:24;;;;;;;35.43;26.17;;;2.10;99.90;;;;;;5055586;28;20633;-86
2022/01/17 11:03:57;;;;;;;34.47;24.97;;;2.20;99.90;;;;;;5069936;28;20182;-85
2022/01/17 11:06:23;;;;;;;35.40;26.97;;;2.20;99.90;;;;;;5075762;28;20191;-85
2022/01/17 11:08:51;;;;;;;33.93;26.73;;;2.20;99.90;;;;;;5080005;28;20168;-86
2022/01/17 11:11:22;;;;;;;36.30;27.50;;;2.30;99.90;;;;;;5082399;28;20174;-84
2022/01/17 11:13:49;;;;;;;36.87;26.50;;;2.60;99.90;;;;;;5077320;28;20239;-87
2022/01/17 11:16:18;;;;;;;41.83;28.43;;;2.80;99.90;;;;;;5074013;28;20176;-87
2022/01/17 11:18:57;;;;;;;48.10;32.33;;;3.00;99.90;;;;;;5073812;28;20164;-86
2022/01/17 11:21:24;;;;;;;92.67;46.50;;;3.30;99.90;;;;;;5074680;28;20612;-87
2022/01/17 11:23:49;;;;;;;131.37;61.90;;;3.40;99.90;;;;;;5073283;28;20170;-87
2022/01/17 11:26:16;;;;;;;1431.37;647.70;;;3.60;99.90;;;;;;5072961;28;20171;-87
2022/01/17 11:28:43;;;;;;;290.90;131.93;;;3.60;99.90;;;;;;5074371;28;20164;-88
2022/01/17 11:31:12;;;;;;;73.80;40.90;;;3.70;99.90;;;;;;5058515;28;20175;-87
2022/01/17 11:33:40;;;;;;;38.70;28.03;;;3.70;99.90;;;;;;5058666;28;20170;-88
2022/01/17 11:36:05;;;;;;;43.13;28.73;;;3.80;99.90;;;;;;5058578;28;20286;-88
2022/01/17 11:38:46;;;;;;;30.33;22.43;;;3.90;99.90;;;;;;5076624;28;20602;-87
2022/01/17 11:41:25;;;;;;;27.47;22.03;;;3.90;99.90;;;;;;5077054;28;20174;-87
2022/01/17 11:44:03;;;;;;;30.00;20.90;;;3.90;99.90;;;;;;5076247;28;20167;-87
2022/01/17 11:46:32;;;;;;;26.77;21.20;;;4.00;99.90;;;;;;5076303;28;20159;-87
2022/01/17 11:49:04;;;;;;;24.43;19.47;;;4.00;99.90;;;;;;5059236;28;20179;-87
2022/01/17 11:51:46;;;;;;;26.03;19.13;;;4.30;99.90;;;;;;5058953;28;20580;-87
2022/01/17 11:54:19;;;;;;;24.10;17.63;;;4.50;99.90;;;;;;5060736;28;20588;-87
2022/01/17 11:56:51;;;;;;;17.27;14.07;;;4.60;99.90;;;;;;5090104;28;20221;-88
2022/01/17 11:59:51;;;;;;;21.23;17.13;;;5.00;99.90;;;;;;5093651;28;20227;-88
2022/01/17 12:02:28;;;;;;;22.90;17.03;;;5.40;99.90;;;;;;5060675;28;20180;-88
2022/01/17 12:05:06;;;;;;;14.23;8.50;;;5.60;99.90;;;;;;5078806;28;20623;-87
2022/01/17 12:07:39;;;;;;;6.13;4.73;;;5.90;97.50;;;;;;5076375;28;20599;-87
2022/01/17 12:10:14;;;;;;;2.17;1.80;;;6.70;93.60;;;;;;5058034;28;20554;-87
2022/01/17 12:12:40;;;;;;;4.93;2.00;;;7.10;90.80;;;;;;5075670;28;20168;-87
2022/01/17 12:15:16;;;;;;;1.83;1.30;;;7.90;85.00;;;;;;5057723;28;20208;-87
2022/01/17 12:17:43;;;;;;;2.43;1.30;;;8.20;84.60;;;;;;5075776;28;20257;-86
2022/01/17 12:20:09;;;;;;;1.90;0.87;;;8.50;81.70;;;;;;5075745;28;20200;-88
2022/01/17 12:22:52;;;;;;;1.20;0.60;;;8.90;79.40;;;;;;5075705;28;20196;-87
2022/01/17 12:25:26;;;;;;;2.93;0.97;;;9.00;77.10;;;;;;5077298;28;20293;-87
2022/01/17 12:28:18;;;;;;;3.23;0.90;;;9.10;77.60;;;;;;5075437;28;20682;-87
2022/01/17 12:30:50;;;;;;;2.60;0.90;;;9.20;75.50;;;;;;5066082;28;20195;-88
2022/01/17 12:33:33;;;;;;;1.40;0.83;;;9.40;75.90;;;;;;5075471;28;20185;-88
2022/01/17 12:36:04;;;;;;;3.20;0.87;;;9.50;73.20;;;;;;5075502;28;20229;-87
2022/01/17 12:38:40;;;;;;;1.73;0.70;;;9.50;73.10;;;;;;5075649;28;20162;-87
2022/01/17 12:41:26;;;;;;;1.00;0.90;;;9.60;72.30;;;;;;5074076;28;20248;-87
2022/01/17 12:43:52;;;;;;;2.97;0.80;;;9.50;71.30;;;;;;5074542;28;20178;-87
2022/01/17 12:46:19;;;;;;;1.77;0.80;;;9.50;71.30;;;;;;5075379;28;20228;-87
2022/01/17 12:48:48;;;;;;;0.60;0.57;;;9.80;70.30;;;;;;5057335;28;20179;-87
2022/01/17 12:51:15;;;;;;;1.10;1.10;;;9.70;68.90;;;;;;5058558;28;20182;-87
2022/01/17 12:53:49;;;;;;;0.80;0.80;;;9.80;70.60;;;;;;5086515;28;20178;-87
2022/01/17 12:56:17;;;;;;;3.13;0.90;;;9.80;70.20;;;;;;5063012;28;20230;-86
2022/01/17 12:58:43;;;;;;;0.57;0.57;;;9.70;69.10;;;;;;5067364;28;20171;-86
2022/01/17 13:01:14;;;;;;;1.33;1.10;;;9.70;70.10;;;;;;5055300;28;20187;-87
2022/01/17 13:03:43;;;;;;;3.60;1.00;;;9.60;71.00;;;;;;5055470;28;20178;-88
2022/01/17 13:06:17;;;;;;;0.73;0.70;;;9.70;69.30;;;;;;5055304;28;20215;-87
2022/01/17 13:08:45;;;;;;;2.00;0.80;;;9.80;69.00;;;;;;5054981;28;20159;-88